sensor_id;sensor_type;location;lat;lon;timestamp;P1;P2;P0
84927;PMS7003;75189;50.640;19.242;2024-02-21T00:02:21;2;0;0
84927;PMS7003;75189;50.640;19.242;2024-02-21T00:08:28;2;0;0
84927;PMS7003;75189;50.640;19.242;2024-02-21T00:14:35;2;0;0
84927;PMS7003;75189;50.640;19.242;2024-02-21T00:20:42;2;1;0
84927;PMS7003;75189;50.640;19.242;2024-02-21T00:26:49;1;0;0
84927;PMS7003;75189;50.640;19.242;2024-02-21T00:32:56;3;0;0
84927;PMS7003;75189;50.640;19.242;2024-02-21T00:39:23;3;0;0
84927;PMS7003;75189;50.640;19.242;2024-02-21T00:45:30;0;0;0
84927;PMS7003;75189;50.640;19.242;2024-02-21T00:51:37;4;1;0
84927;PMS7003;75189;50.640;19.242;2024-02-21T00:57:44;2;1;0
84927;PMS7003;75189;50.640;19.242;2024-02-21T01:03:51;0;0;0
84927;PMS7003;75189;50.640;19.242;2024-02-21T01:10:01;0;0;0
84927;PMS7003;75189;50.640;19.242;2024-02-21T01:16:08;2;2;0
84927;PMS7003;75189;50.640;19.242;2024-02-21T01:22:15;0;0;0
84927;PMS7003;75189;50.640;19.242;2024-02-21T01:28:40;1;0;0
84927;PMS7003;75189;50.640;19.242;2024-02-21T01:34:47;1;0;0
84927;PMS7003;75189;50.640;19.242;2024-02-21T01:40:54;5;2;1
84927;PMS7003;75189;50.640;19.242;2024-02-21T01:47:02;2;1;0
84927;PMS7003;75189;50.640;19.242;2024-02-21T01:53:09;3;3;1
84927;PMS7003;75189;50.640;19.242;2024-02-21T01:59:17;3;1;0
84927;PMS7003;75189;50.640;19.242;2024-02-21T02:05:26;1;0;0
84927;PMS7003;75189;50.640;19.242;2024-02-21T02:11:33;1;0;0
84927;PMS7003;75189;50.640;19.242;2024-02-21T02:17:56;1;1;0
84927;PMS7003;75189;50.640;19.242;2024-02-21T02:24:03;1;1;0
84927;PMS7003;75189;50.640;19.242;2024-02-21T02:30:11;2;2;0
84927;PMS7003;75189;50.640;19.242;2024-02-21T02:36:18;3;3;1
84927;PMS7003;75189;50.640;19.242;2024-02-21T02:42:25;6;3;1
84927;PMS7003;75189;50.640;19.242;2024-02-21T02:48:32;4;1;0
84927;PMS7003;75189;50.640;19.242;2024-02-21T02:54:39;2;1;0
84927;PMS7003;75189;50.640;19.242;2024-02-21T03:00:46;4;1;0
84927;PMS7003;75189;50.640;19.242;2024-02-21T03:07:14;1;1;0
84927;PMS7003;75189;50.640;19.242;2024-02-21T03:13:22;3;1;0
84927;PMS7003;75189;50.640;19.242;2024-02-21T03:19:29;1;0;0
84927;PMS7003;75189;50.640;19.242;2024-02-21T03:25:36;2;1;0
84927;PMS7003;75189;50.640;19.242;2024-02-21T03:31:43;4;3;1
84927;PMS7003;75189;50.640;19.242;2024-02-21T03:37:50;2;2;1
84927;PMS7003;75189;50.640;19.242;2024-02-21T03:43:57;2;1;0
84927;PMS7003;75189;50.640;19.242;2024-02-21T03:50:05;5;2;0
84927;PMS7003;75189;50.640;19.242;2024-02-21T03:56:30;7;1;0
84927;PMS7003;75189;50.640;19.242;2024-02-21T04:02:38;5;4;2
84927;PMS7003;75189;50.640;19.242;2024-02-21T04:08:45;3;1;0
84927;PMS7003;75189;50.640;19.242;2024-02-21T04:14:52;7;4;2
84927;PMS7003;75189;50.640;19.242;2024-02-21T04:20:59;5;2;1
84927;PMS7003;75189;50.640;19.242;2024-02-21T04:27:06;3;1;0
84927;PMS7003;75189;50.640;19.242;2024-02-21T04:33:13;4;0;0
84927;PMS7003;75189;50.640;19.242;2024-02-21T04:39:20;2;2;1
84927;PMS7003;75189;50.640;19.242;2024-02-21T04:45:47;3;2;0
84927;PMS7003;75189;50.640;19.242;2024-02-21T04:51:56;3;2;1
84927;PMS7003;75189;50.640;19.242;2024-02-21T04:58:03;4;4;1
84927;PMS7003;75189;50.640;19.242;2024-02-21T05:04:10;3;3;1
84927;PMS7003;75189;50.640;19.242;2024-02-21T05:10:17;2;1;0
84927;PMS7003;75189;50.640;19.242;2024-02-21T05:16:26;4;2;1
84927;PMS7003;75189;50.640;19.242;2024-02-21T05:22:33;1;1;0
84927;PMS7003;75189;50.640;19.242;2024-02-21T05:28:40;6;3;1
84927;PMS7003;75189;50.640;19.242;2024-02-21T05:35:04;7;4;2
84927;PMS7003;75189;50.640;19.242;2024-02-21T05:41:11;3;3;2
84927;PMS7003;75189;50.640;19.242;2024-02-21T05:47:18;5;3;0
84927;PMS7003;75189;50.640;19.242;2024-02-21T05:53:27;1;1;0
84927;PMS7003;75189;50.640;19.242;2024-02-21T05:59:34;5;4;2
84927;PMS7003;75189;50.640;19.242;2024-02-21T06:05:46;0;0;0
84927;PMS7003;75189;50.640;19.242;2024-02-21T06:11:53;7;4;2
84927;PMS7003;75189;50.640;19.242;2024-02-21T06:18:00;7;3;2
84927;PMS7003;75189;50.640;19.242;2024-02-21T06:24:21;6;4;2
84927;PMS7003;75189;50.640;19.242;2024-02-21T06:30:28;8;4;3
84927;PMS7003;75189;50.640;19.242;2024-02-21T06:36:35;6;2;2
84927;PMS7003;75189;50.640;19.242;2024-02-21T06:42:42;6;3;2
84927;PMS7003;75189;50.640;19.242;2024-02-21T06:48:49;8;5;2
84927;PMS7003;75189;50.640;19.242;2024-02-21T06:54:56;6;4;2
84927;PMS7003;75189;50.640;19.242;2024-02-21T07:01:03;8;4;2
84927;PMS7003;75189;50.640;19.242;2024-02-21T07:07:10;6;5;3
84927;PMS7003;75189;50.640;19.242;2024-02-21T07:13:38;4;2;0
84927;PMS7003;75189;50.640;19.242;2024-02-21T07:19:45;2;1;0
84927;PMS7003;75189;50.640;19.242;2024-02-21T07:25:52;8;4;3
84927;PMS7003;75189;50.640;19.242;2024-02-21T07:31:59;5;4;1
84927;PMS7003;75189;50.640;19.242;2024-02-21T07:38:06;8;6;3
84927;PMS7003;75189;50.640;19.242;2024-02-21T07:44:18;3;3;1
84927;PMS7003;75189;50.640;19.242;2024-02-21T07:50:25;4;3;1
84927;PMS7003;75189;50.640;19.242;2024-02-21T07:56:32;7;4;2
84927;PMS7003;75189;50.640;19.242;2024-02-21T08:02:55;7;4;2
84927;PMS7003;75189;50.640;19.242;2024-02-21T08:09:03;10;6;3
84927;PMS7003;75189;50.640;19.242;2024-02-21T08:15:10;14;9;4
84927;PMS7003;75189;50.640;19.242;2024-02-21T08:21:22;11;8;5
84927;PMS7003;75189;50.640;19.242;2024-02-21T08:27:29;8;5;3
84927;PMS7003;75189;50.640;19.242;2024-02-21T08:33:36;9;6;3
84927;PMS7003;75189;50.640;19.242;2024-02-21T08:39:43;11;8;5
84927;PMS7003;75189;50.640;19.242;2024-02-21T08:45:50;13;9;7
84927;PMS7003;75189;50.640;19.242;2024-02-21T08:52:12;10;8;5
84927;PMS7003;75189;50.640;19.242;2024-02-21T08:58:21;14;10;5
84927;PMS7003;75189;50.640;19.242;2024-02-21T09:04:32;7;5;3
84927;PMS7003;75189;50.640;19.242;2024-02-21T09:10:41;9;8;5
84927;PMS7003;75189;50.640;19.242;2024-02-21T09:16:50;18;14;9
84927;PMS7003;75189;50.640;19.242;2024-02-21T09:22:57;16;13;7
84927;PMS7003;75189;50.640;19.242;2024-02-21T09:29:04;9;9;5
84927;PMS7003;75189;50.640;19.242;2024-02-21T09:35:11;16;11;7
84927;PMS7003;75189;50.640;19.242;2024-02-21T09:41:29;10;8;6
84927;PMS7003;75189;50.640;19.242;2024-02-21T09:53:58;14;9;7
84927;PMS7003;75189;50.640;19.242;2024-02-21T10:00:07;13;9;6
84927;PMS7003;75189;50.640;19.242;2024-02-21T10:06:15;12;8;5
84927;PMS7003;75189;50.640;19.242;2024-02-21T10:12:22;10;8;4
84927;PMS7003;75189;50.640;19.242;2024-02-21T10:18:29;10;7;4
84927;PMS7003;75189;50.640;19.242;2024-02-21T10:24:36;11;8;5
84927;PMS7003;75189;50.640;19.242;2024-02-21T10:30:50;10;4;3
84927;PMS7003;75189;50.640;19.242;2024-02-21T10:43:12;9;7;4
84927;PMS7003;75189;50.640;19.242;2024-02-21T10:49:25;7;6;4
84927;PMS7003;75189;50.640;19.242;2024-02-21T10:55:37;6;5;3
84927;PMS7003;75189;50.640;19.242;2024-02-21T11:01:48;6;6;4
84927;PMS7003;75189;50.640;19.242;2024-02-21T11:07:54;8;7;3
84927;PMS7003;75189;50.640;19.242;2024-02-21T11:14:05;12;6;4
84927;PMS7003;75189;50.640;19.242;2024-02-21T11:20:20;8;4;2
84927;PMS7003;75189;50.640;19.242;2024-02-21T11:26:33;7;3;1
84927;PMS7003;75189;50.640;19.242;2024-02-21T11:32:40;4;3;1
84927;PMS7003;75189;50.640;19.242;2024-02-21T11:38:47;5;3;2
84927;PMS7003;75189;50.640;19.242;2024-02-21T11:44:54;8;5;3
84927;PMS7003;75189;50.640;19.242;2024-02-21T11:51:04;5;3;2
84927;PMS7003;75189;50.640;19.242;2024-02-21T11:57:11;4;4;2
84927;PMS7003;75189;50.640;19.242;2024-02-21T12:03:19;3;3;2
84927;PMS7003;75189;50.640;19.242;2024-02-21T12:09:34;6;4;3
84927;PMS7003;75189;50.640;19.242;2024-02-21T12:15:41;2;2;1
84927;PMS7003;75189;50.640;19.242;2024-02-21T12:21:55;5;3;2
84927;PMS7003;75189;50.640;19.242;2024-02-21T12:28:03;6;3;2
84927;PMS7003;75189;50.640;19.242;2024-02-21T12:34:11;3;2;1
84927;PMS7003;75189;50.640;19.242;2024-02-21T12:40:18;4;4;1
84927;PMS7003;75189;50.640;19.242;2024-02-21T12:46:25;5;4;2
84927;PMS7003;75189;50.640;19.242;2024-02-21T12:52:32;6;4;2
84927;PMS7003;75189;50.640;19.242;2024-02-21T12:58:51;4;4;2
84927;PMS7003;75189;50.640;19.242;2024-02-21T13:04:58;5;2;1
84927;PMS7003;75189;50.640;19.242;2024-02-21T13:15:49;3;3;1
84927;PMS7003;75189;50.640;19.242;2024-02-21T13:21:58;6;3;1
84927;PMS7003;75189;50.640;19.242;2024-02-21T13:28:05;4;3;0
84927;PMS7003;75189;50.640;19.242;2024-02-21T13:34:15;8;3;2
84927;PMS7003;75189;50.640;19.242;2024-02-21T13:40:23;4;2;1
84927;PMS7003;75189;50.640;19.242;2024-02-21T13:46:32;4;4;2
84927;PMS7003;75189;50.640;19.242;2024-02-21T13:52:39;6;4;2
84927;PMS7003;75189;50.640;19.242;2024-02-21T13:59:06;11;8;5
84927;PMS7003;75189;50.640;19.242;2024-02-21T14:05:14;6;5;2
84927;PMS7003;75189;50.640;19.242;2024-02-21T14:11:21;4;4;3
84927;PMS7003;75189;50.640;19.242;2024-02-21T14:17:28;8;4;1
84927;PMS7003;75189;50.640;19.242;2024-02-21T14:23:37;8;6;5
84927;PMS7003;75189;50.640;19.242;2024-02-21T14:29:44;10;7;4
84927;PMS7003;75189;50.640;19.242;2024-02-21T14:35:51;10;7;4
84927;PMS7003;75189;50.640;19.242;2024-02-21T14:41:58;10;4;3
84927;PMS7003;75189;50.640;19.242;2024-02-21T14:48:23;4;1;0
84927;PMS7003;75189;50.640;19.242;2024-02-21T14:54:35;3;3;1
84927;PMS7003;75189;50.640;19.242;2024-02-21T15:00:42;10;7;4
84927;PMS7003;75189;50.640;19.242;2024-02-21T15:06:49;8;5;3
84927;PMS7003;75189;50.640;19.242;2024-02-21T15:12:57;6;4;3
84927;PMS7003;75189;50.640;19.242;2024-02-21T15:19:04;8;6;3
84927;PMS7003;75189;50.640;19.242;2024-02-21T15:25:11;9;5;3
84927;PMS7003;75189;50.640;19.242;2024-02-21T15:31:24;13;8;6
84927;PMS7003;75189;50.640;19.242;2024-02-21T15:37:42;14;9;6
84927;PMS7003;75189;50.640;19.242;2024-02-21T15:43:49;15;14;8
84927;PMS7003;75189;50.640;19.242;2024-02-21T15:49:57;14;10;5
84927;PMS7003;75189;50.640;19.242;2024-02-21T15:56:06;16;11;6
84927;PMS7003;75189;50.640;19.242;2024-02-21T16:02:14;11;8;6
84927;PMS7003;75189;50.640;19.242;2024-02-21T16:08:20;15;9;5
84927;PMS7003;75189;50.640;19.242;2024-02-21T16:14:29;18;12;8
84927;PMS7003;75189;50.640;19.242;2024-02-21T16:20:35;12;11;7
84927;PMS7003;75189;50.640;19.242;2024-02-21T16:26:57;10;9;6
84927;PMS7003;75189;50.640;19.242;2024-02-21T16:33:04;11;8;4
84927;PMS7003;75189;50.640;19.242;2024-02-21T16:39:11;7;5;3
84927;PMS7003;75189;50.640;19.242;2024-02-21T16:45:19;10;6;3
84927;PMS7003;75189;50.640;19.242;2024-02-21T16:51:27;9;7;3
84927;PMS7003;75189;50.640;19.242;2024-02-21T16:57:34;12;7;3
84927;PMS7003;75189;50.640;19.242;2024-02-21T17:03:41;14;8;5
84927;PMS7003;75189;50.640;19.242;2024-02-21T17:09:48;13;9;5
84927;PMS7003;75189;50.640;19.242;2024-02-21T17:16:14;18;14;7
84927;PMS7003;75189;50.640;19.242;2024-02-21T17:22:20;22;14;8
84927;PMS7003;75189;50.640;19.242;2024-02-21T17:28:28;11;10;6
84927;PMS7003;75189;50.640;19.242;2024-02-21T17:34:35;10;8;5
84927;PMS7003;75189;50.640;19.242;2024-02-21T17:40:42;13;8;5
84927;PMS7003;75189;50.640;19.242;2024-02-21T17:46:50;12;10;7
84927;PMS7003;75189;50.640;19.242;2024-02-21T17:52:58;18;16;9
84927;PMS7003;75189;50.640;19.242;2024-02-21T17:59:06;16;11;8
84927;PMS7003;75189;50.640;19.242;2024-02-21T18:05:31;14;11;7
84927;PMS7003;75189;50.640;19.242;2024-02-21T18:11:37;11;8;6
84927;PMS7003;75189;50.640;19.242;2024-02-21T18:17:45;16;10;6
84927;PMS7003;75189;50.640;19.242;2024-02-21T18:23:52;12;10;7
84927;PMS7003;75189;50.640;19.242;2024-02-21T18:29:59;14;5;3
84927;PMS7003;75189;50.640;19.242;2024-02-21T18:36:06;16;8;4
84927;PMS7003;75189;50.640;19.242;2024-02-21T18:42:14;11;8;3
84927;PMS7003;75189;50.640;19.242;2024-02-21T18:48:22;12;5;4
84927;PMS7003;75189;50.640;19.242;2024-02-21T18:54:48;11;8;6
84927;PMS7003;75189;50.640;19.242;2024-02-21T19:00:55;12;8;3
84927;PMS7003;75189;50.640;19.242;2024-02-21T19:07:03;8;8;5
84927;PMS7003;75189;50.640;19.242;2024-02-21T19:13:10;12;9;6
84927;PMS7003;75189;50.640;19.242;2024-02-21T19:19:19;15;10;7
84927;PMS7003;75189;50.640;19.242;2024-02-21T19:25:27;11;8;4
84927;PMS7003;75189;50.640;19.242;2024-02-21T19:31:35;10;5;2
84927;PMS7003;75189;50.640;19.242;2024-02-21T19:37:43;13;11;6
84927;PMS7003;75189;50.640;19.242;2024-02-21T19:44:05;10;9;5
84927;PMS7003;75189;50.640;19.242;2024-02-21T19:50:18;15;8;5
84927;PMS7003;75189;50.640;19.242;2024-02-21T19:56:31;10;8;5
84927;PMS7003;75189;50.640;19.242;2024-02-21T20:02:41;15;13;7
84927;PMS7003;75189;50.640;19.242;2024-02-21T20:08:48;10;7;5
84927;PMS7003;75189;50.640;19.242;2024-02-21T20:14:55;14;10;5
84927;PMS7003;75189;50.640;19.242;2024-02-21T20:21:03;13;8;4
84927;PMS7003;75189;50.640;19.242;2024-02-21T20:27:11;6;5;3
84927;PMS7003;75189;50.640;19.242;2024-02-21T20:33:22;19;15;8
84927;PMS7003;75189;50.640;19.242;2024-02-21T20:39:29;15;10;8
84927;PMS7003;75189;50.640;19.242;2024-02-21T20:45:37;12;9;5
84927;PMS7003;75189;50.640;19.242;2024-02-21T20:51:44;16;13;7
84927;PMS7003;75189;50.640;19.242;2024-02-21T20:57:51;20;18;11
84927;PMS7003;75189;50.640;19.242;2024-02-21T21:03:58;12;10;6
84927;PMS7003;75189;50.640;19.242;2024-02-21T21:10:06;11;5;3
84927;PMS7003;75189;50.640;19.242;2024-02-21T21:16:18;11;8;5
84927;PMS7003;75189;50.640;19.242;2024-02-21T21:22:39;14;10;6
84927;PMS7003;75189;50.640;19.242;2024-02-21T21:28:45;13;11;8
84927;PMS7003;75189;50.640;19.242;2024-02-21T21:34:52;10;9;5
84927;PMS7003;75189;50.640;19.242;2024-02-21T21:40:59;12;8;5
84927;PMS7003;75189;50.640;19.242;2024-02-21T21:47:07;11;8;5
84927;PMS7003;75189;50.640;19.242;2024-02-21T21:53:13;15;12;7
84927;PMS7003;75189;50.640;19.242;2024-02-21T21:59:20;15;11;7
84927;PMS7003;75189;50.640;19.242;2024-02-21T22:05:28;8;6;3
84927;PMS7003;75189;50.640;19.242;2024-02-21T22:11:56;6;3;2
84927;PMS7003;75189;50.640;19.242;2024-02-21T22:18:04;13;11;5
84927;PMS7003;75189;50.640;19.242;2024-02-21T22:24:10;10;6;4
84927;PMS7003;75189;50.640;19.242;2024-02-21T22:30:17;8;5;3
84927;PMS7003;75189;50.640;19.242;2024-02-21T22:36:25;9;7;5
84927;PMS7003;75189;50.640;19.242;2024-02-21T22:42:32;8;5;3
84927;PMS7003;75189;50.640;19.242;2024-02-21T22:48:39;9;5;3
84927;PMS7003;75189;50.640;19.242;2024-02-21T22:54:46;6;3;3
84927;PMS7003;75189;50.640;19.242;2024-02-21T23:01:13;9;6;4
84927;PMS7003;75189;50.640;19.242;2024-02-21T23:07:23;8;6;3
84927;PMS7003;75189;50.640;19.242;2024-02-21T23:13:30;12;9;4
84927;PMS7003;75189;50.640;19.242;2024-02-21T23:19:38;8;7;4
84927;PMS7003;75189;50.640;19.242;2024-02-21T23:25:47;9;5;3
84927;PMS7003;75189;50.640;19.242;2024-02-21T23:31:54;7;6;4
84927;PMS7003;75189;50.640;19.242;2024-02-21T23:38:02;10;7;4
84927;PMS7003;75189;50.640;19.242;2024-02-21T23:44:15;10;6;5
84927;PMS7003;75189;50.640;19.242;2024-02-21T23:50:30;12;9;5
84927;PMS7003;75189;50.640;19.242;2024-02-21T23:56:41;11;6;3
